createdAt,value
2019-02-14T00:02:14.466Z,101355.77
2019-02-14T00:04:42.704Z,101356.59
2019-02-14T00:07:11.158Z,101351.71
2019-02-14T00:09:39.618Z,101356.29
2019-02-14T00:12:07.849Z,101358.09
2019-02-14T00:14:36.310Z,101357.89
2019-02-14T00:17:04.761Z,101357.36
2019-02-14T00:19:33.239Z,101364.23
2019-02-14T00:22:01.462Z,101366.57
2019-02-14T00:24:29.932Z,101366.94
2019-02-14T00:26:58.165Z,101354.78
2019-02-14T00:29:26.386Z,101358.39
2019-02-14T00:31:54.623Z,101357.78
2019-02-14T00:34:22.983Z,101353.40
2019-02-14T00:36:51.220Z,101357.91
2019-02-14T00:39:19.443Z,101349.72
2019-02-14T00:41:47.903Z,101348.05
2019-02-14T00:44:16.139Z,101347.84
2019-02-14T00:46:44.597Z,101353.05
2019-02-14T00:49:12.819Z,101357.75
2019-02-14T00:51:41.061Z,101358.07
2019-02-14T00:54:09.287Z,101354.47
2019-02-14T00:56:37.533Z,101342.80
2019-02-14T00:59:05.766Z,101340.25
2019-02-14T01:01:34.006Z,101340.75
2019-02-14T01:04:02.237Z,101346.16
2019-02-14T01:06:30.474Z,101352.30
2019-02-14T01:08:58.700Z,101349.64
2019-02-14T01:11:27.002Z,101337.72
2019-02-14T01:13:55.241Z,101338.29
2019-02-14T01:16:23.479Z,101335.95
2019-02-14T01:18:51.706Z,101332.92
2019-02-14T01:21:20.018Z,101338.66
2019-02-14T01:23:48.243Z,101332.11
2019-02-14T01:26:16.753Z,101338.98
2019-02-14T01:28:44.982Z,101339.81
2019-02-14T01:31:13.507Z,101341.78
2019-02-14T01:33:41.739Z,101340.72
2019-02-14T01:36:09.964Z,101337.03
2019-02-14T01:38:38.204Z,101341.00
2019-02-14T01:41:06.659Z,101339.41
2019-02-14T01:43:34.900Z,101332.94
2019-02-14T01:46:03.127Z,101339.48
2019-02-14T01:48:31.589Z,101341.93
2019-02-14T01:51:00.038Z,101344.10
2019-02-14T01:53:28.269Z,101345.04
2019-02-14T01:55:56.496Z,101345.94
2019-02-14T01:58:24.739Z,101340.91
2019-02-14T02:00:52.976Z,101339.67
2019-02-14T02:03:21.233Z,101333.03
2019-02-14T02:05:50.975Z,101331.60
2019-02-14T02:08:19.284Z,101337.58
2019-02-14T02:10:47.749Z,101334.87
2019-02-14T02:13:16.216Z,101332.87
2019-02-14T02:15:44.450Z,101339.41
2019-02-14T02:18:12.695Z,101349.47
2019-02-14T02:20:40.931Z,101348.03
2019-02-14T02:23:09.172Z,101359.08
2019-02-14T02:25:37.405Z,101353.64
2019-02-14T02:28:05.650Z,101352.07
2019-02-14T02:30:34.112Z,101343.36
2019-02-14T02:33:02.348Z,101343.86
2019-02-14T02:35:30.588Z,101342.95
2019-02-14T02:37:58.820Z,101351.80
2019-02-14T02:40:27.067Z,101350.07
2019-02-14T02:42:55.305Z,101346.67
2019-02-14T02:45:23.549Z,101346.27
2019-02-14T02:50:21.736Z,101349.00
2019-02-14T02:52:49.966Z,101343.62
2019-02-14T02:55:18.448Z,101345.43
2019-02-14T02:57:46.679Z,101348.17
2019-02-14T03:00:16.657Z,101346.37
2019-02-14T03:02:44.961Z,101349.70
2019-02-14T03:05:15.282Z,101350.73
2019-02-14T03:07:43.512Z,101348.53
2019-02-14T03:10:13.296Z,101338.23
2019-02-14T03:12:41.757Z,101344.09
2019-02-14T03:15:12.900Z,101349.23
2019-02-14T03:17:41.136Z,101349.97
2019-02-14T03:20:11.218Z,101346.53
2019-02-14T03:22:39.455Z,101352.50
2019-02-14T03:25:16.687Z,101349.77
2019-02-14T03:27:44.903Z,101356.78
2019-02-14T03:30:15.098Z,101352.54
2019-02-14T03:32:43.547Z,101350.44
2019-02-14T03:35:11.837Z,101354.44
2019-02-14T03:37:40.065Z,101357.38
2019-02-14T03:40:11.462Z,101357.38
2019-02-14T03:42:39.928Z,101355.44
2019-02-14T03:45:13.698Z,101357.03
2019-02-14T03:47:41.937Z,101361.91
2019-02-14T03:50:11.198Z,101361.74
2019-02-14T03:52:39.435Z,101365.02
2019-02-14T03:55:09.625Z,101363.55
2019-02-14T03:57:38.726Z,101369.66
2019-02-14T04:00:12.343Z,101358.58
2019-02-14T04:02:40.576Z,101362.75
2019-02-14T04:05:09.047Z,101373.99
2019-02-14T04:07:37.287Z,101370.92
2019-02-14T04:10:13.653Z,101382.13
2019-02-14T04:12:42.118Z,101389.01
2019-02-14T04:15:15.422Z,101386.14
2019-02-14T04:17:43.653Z,101388.11
2019-02-14T04:20:12.117Z,101387.60
2019-02-14T04:22:40.354Z,101378.20
2019-02-14T04:25:09.823Z,101380.56
2019-02-14T04:27:38.291Z,101379.86
2019-02-14T04:30:09.428Z,101380.95
2019-02-14T04:32:37.898Z,101380.76
2019-02-14T04:35:06.297Z,101376.25
2019-02-14T04:37:34.545Z,101379.52
2019-02-14T04:40:02.771Z,101381.38
2019-02-14T04:42:31.005Z,101377.98
2019-02-14T04:44:59.479Z,101381.80
2019-02-14T04:47:27.707Z,101379.98
2019-02-14T04:49:55.943Z,101378.00
2019-02-14T04:52:24.171Z,101374.77
2019-02-14T04:54:52.410Z,101378.23
2019-02-14T04:57:20.638Z,101375.69
2019-02-14T04:59:49.103Z,101377.22
2019-02-14T05:02:17.329Z,101382.67
2019-02-14T05:04:45.562Z,101379.27
2019-02-14T05:07:14.016Z,101380.00
2019-02-14T05:09:42.257Z,101383.27
2019-02-14T05:12:10.714Z,101382.05
2019-02-14T05:14:39.175Z,101387.84
2019-02-14T05:17:07.403Z,101389.31
2019-02-14T05:19:35.643Z,101387.89
2019-02-14T05:22:04.108Z,101396.20
2019-02-14T05:24:32.347Z,101398.73
2019-02-14T05:27:00.575Z,101396.03
2019-02-14T05:29:28.819Z,101393.50
2019-02-14T05:31:57.276Z,101392.59
2019-02-14T05:34:25.518Z,101388.80
2019-02-14T05:36:55.307Z,101395.84
2019-02-14T05:39:23.602Z,101395.84
2019-02-14T05:41:51.829Z,101390.45
2019-02-14T05:44:20.062Z,101384.88
2019-02-14T05:46:48.300Z,101394.13
2019-02-14T05:49:16.527Z,101389.60
2019-02-14T05:51:44.768Z,101388.34
2019-02-14T05:54:12.995Z,101394.30
2019-02-14T05:56:41.238Z,101393.41
2019-02-14T05:59:09.471Z,101396.32
2019-02-14T06:01:37.723Z,101388.91
2019-02-14T06:04:05.934Z,101386.58
2019-02-14T06:06:34.170Z,101392.01
2019-02-14T06:09:02.401Z,101395.61
2019-02-14T06:11:30.980Z,101400.50
2019-02-14T06:13:59.433Z,101386.99
2019-02-14T06:16:27.893Z,101395.69
2019-02-14T06:18:56.123Z,101396.41
2019-02-14T06:21:24.592Z,101397.85
2019-02-14T06:23:52.817Z,101398.95
2019-02-14T06:26:21.060Z,101396.97
2019-02-14T06:28:49.293Z,101400.23
2019-02-14T06:31:17.527Z,101404.03
2019-02-14T06:33:45.759Z,101401.50
2019-02-14T06:36:14.260Z,101407.67
2019-02-14T06:38:42.493Z,101406.81
2019-02-14T06:41:10.725Z,101410.39
2019-02-14T06:43:38.955Z,101418.58
2019-02-14T06:46:07.203Z,101423.12
2019-02-14T06:48:35.753Z,101424.21
2019-02-14T06:51:03.979Z,101428.91
2019-02-14T06:53:32.221Z,101431.98
2019-02-14T06:56:00.452Z,101436.08
2019-02-14T06:58:28.691Z,101444.02
2019-02-14T07:00:57.247Z,101444.38
2019-02-14T07:03:25.706Z,101450.33
2019-02-14T07:05:54.197Z,101459.36
2019-02-14T07:08:22.418Z,101460.75
2019-02-14T07:10:50.874Z,101465.08
2019-02-14T07:13:19.129Z,101463.06
2019-02-14T07:15:47.369Z,101447.17
2019-02-14T07:18:15.619Z,101471.48
2019-02-14T07:20:43.857Z,101476.36
2019-02-14T07:23:12.117Z,101477.44
2019-02-14T07:25:40.356Z,101474.71
2019-02-14T07:28:08.828Z,101481.70
2019-02-14T07:30:37.300Z,101485.50
2019-02-14T07:33:05.609Z,101483.31
2019-02-14T07:35:34.169Z,101482.95
2019-02-14T07:38:02.753Z,101480.95
2019-02-14T07:40:30.996Z,101475.16
2019-02-14T07:42:59.510Z,101478.94
2019-02-14T07:45:27.739Z,101490.09
2019-02-14T07:47:56.202Z,101489.71
2019-02-14T07:50:24.456Z,101499.85
2019-02-14T07:52:52.695Z,101503.11
2019-02-14T07:55:20.947Z,101502.71
2019-02-14T07:57:49.484Z,101507.55
2019-02-14T08:00:19.395Z,101504.83
2019-02-14T08:02:47.625Z,101509.88
2019-02-14T08:05:15.870Z,101519.07
2019-02-14T08:07:44.101Z,101517.38
2019-02-14T08:10:16.314Z,101519.72
2019-02-14T08:12:44.773Z,101527.70
2019-02-14T08:15:16.192Z,101523.16
2019-02-14T08:17:44.402Z,101533.45
2019-02-14T08:20:15.186Z,101535.42
2019-02-14T08:22:43.418Z,101533.06
2019-02-14T08:25:13.108Z,101536.81
2019-02-14T08:27:41.342Z,101531.88
2019-02-14T08:30:15.068Z,101527.86
2019-02-14T08:32:43.531Z,101528.27
2019-02-14T08:35:11.779Z,101533.97
2019-02-14T08:37:45.453Z,101531.73
2019-02-14T08:40:19.359Z,101538.32
2019-02-14T08:42:47.861Z,101541.27
2019-02-14T08:45:16.341Z,101523.55
2019-02-14T08:47:44.591Z,101522.47
2019-02-14T08:50:12.896Z,101519.58
2019-02-14T08:52:41.144Z,101525.57
2019-02-14T08:55:10.287Z,101516.89
2019-02-14T08:57:38.866Z,101521.30
2019-02-14T09:00:15.204Z,101510.80
2019-02-14T09:02:43.527Z,101507.27
2019-02-14T09:05:12.085Z,101504.87
2019-02-14T09:07:40.326Z,101499.91
2019-02-14T09:10:14.295Z,101498.82
2019-02-14T09:12:42.563Z,101500.05
2019-02-14T09:15:12.542Z,101492.41
2019-02-14T09:17:40.785Z,101502.39
2019-02-14T09:20:12.117Z,101503.66
2019-02-14T09:22:40.358Z,101495.31
2019-02-14T09:25:08.595Z,101496.53
2019-02-14T09:27:36.841Z,101487.70
2019-02-14T09:30:08.201Z,101474.65
2019-02-14T09:32:36.427Z,101481.62
2019-02-14T09:35:06.498Z,101465.55
2019-02-14T09:37:34.979Z,101465.55
2019-02-14T09:40:03.678Z,101464.00
2019-02-14T09:42:31.917Z,101464.00
2019-02-14T09:45:00.316Z,101457.39
2019-02-14T09:47:28.486Z,101466.12
2019-02-14T09:49:56.749Z,101474.89
2019-02-14T09:52:24.964Z,101461.41
2019-02-14T09:54:53.209Z,101475.58
2019-02-14T09:57:21.476Z,101475.58
2019-02-14T09:59:49.693Z,101471.13
2019-02-14T10:02:17.936Z,101478.73
2019-02-14T10:04:46.179Z,101479.03
2019-02-14T10:07:14.889Z,101475.62
2019-02-14T10:09:43.170Z,101483.23
2019-02-14T10:12:11.391Z,101477.98
2019-02-14T10:14:39.921Z,101480.06
2019-02-14T10:17:08.154Z,101484.37
2019-02-14T10:19:36.688Z,101485.18
2019-02-14T10:22:05.149Z,101485.73
2019-02-14T10:24:33.627Z,101486.54
2019-02-14T10:27:01.866Z,101483.22
2019-02-14T10:29:30.107Z,101484.68
2019-02-14T10:31:58.343Z,101482.64
2019-02-14T10:34:26.806Z,101487.31
2019-02-14T10:36:55.051Z,101484.85
2019-02-14T10:39:23.276Z,101476.06
2019-02-14T10:41:51.523Z,101468.55
2019-02-14T10:44:19.986Z,101468.30
2019-02-14T10:46:48.552Z,101469.45
2019-02-14T10:49:16.781Z,101462.48
2019-02-14T10:51:45.035Z,101458.78
2019-02-14T10:54:13.268Z,101474.30
2019-02-14T10:56:41.509Z,101466.75
2019-02-14T10:59:09.746Z,101466.76
2019-02-14T11:01:38.221Z,101476.36
2019-02-14T11:04:06.456Z,101475.70
2019-02-14T11:06:34.697Z,101475.09
2019-02-14T11:09:03.250Z,101466.12
2019-02-14T11:11:31.492Z,101465.77
2019-02-14T11:13:59.723Z,101473.23
2019-02-14T11:16:27.971Z,101466.48
2019-02-14T11:18:56.239Z,101467.77
2019-02-14T11:21:24.476Z,101457.03
2019-02-14T11:23:52.720Z,101451.89
2019-02-14T11:26:20.961Z,101466.09
2019-02-14T11:28:49.470Z,101462.50
2019-02-14T11:31:17.942Z,101463.03
2019-02-14T11:33:46.412Z,101452.00
2019-02-14T11:36:14.654Z,101452.94
2019-02-14T11:38:42.899Z,101449.22
2019-02-14T11:41:11.146Z,101440.87
2019-02-14T11:43:39.615Z,101436.89
2019-02-14T11:46:08.083Z,101427.89
2019-02-14T11:48:36.322Z,101430.94
2019-02-14T11:51:04.888Z,101429.27
2019-02-14T11:53:33.153Z,101433.07
2019-02-14T11:56:01.402Z,101440.63
2019-02-14T11:58:29.632Z,101436.71
2019-02-14T12:00:57.878Z,101427.92
2019-02-14T12:03:26.115Z,101426.83
2019-02-14T12:05:54.572Z,101423.08
2019-02-14T12:08:22.828Z,101429.87
2019-02-14T12:10:51.058Z,101429.81
2019-02-14T12:13:19.335Z,101422.36
2019-02-14T12:15:47.571Z,101417.99
2019-02-14T12:18:15.813Z,101416.81
2019-02-14T12:20:44.055Z,101418.99
2019-02-14T12:23:12.293Z,101413.76
2019-02-14T12:25:40.527Z,101409.38
2019-02-14T12:28:08.759Z,101395.22
2019-02-14T12:30:37.002Z,101398.75
2019-02-14T12:33:05.235Z,101390.92
2019-02-14T12:35:33.480Z,101384.71
2019-02-14T12:38:02.063Z,101380.13
2019-02-14T12:40:30.292Z,101374.30
2019-02-14T12:42:58.811Z,101380.13
2019-02-14T12:45:27.419Z,101381.38
2019-02-14T12:47:55.978Z,101370.08
2019-02-14T12:50:24.451Z,101359.80
2019-02-14T12:52:52.697Z,101368.53
2019-02-14T12:55:20.927Z,101368.95
2019-02-14T12:57:49.167Z,101368.41
2019-02-14T13:00:22.289Z,101367.47
2019-02-14T13:02:50.534Z,101365.94
2019-02-14T13:05:19.041Z,101357.36
2019-02-14T13:07:47.287Z,101354.44
2019-02-14T13:10:17.526Z,101347.96
2019-02-14T13:12:45.770Z,101344.14
2019-02-14T13:15:16.919Z,101344.17
2019-02-14T13:17:45.452Z,101338.64
2019-02-14T13:20:13.951Z,101338.77
2019-02-14T13:22:42.182Z,101331.83
2019-02-14T13:25:11.826Z,101330.52
2019-02-14T13:27:40.286Z,101325.34
2019-02-14T13:30:11.535Z,101322.59
2019-02-14T13:32:39.768Z,101326.41
2019-02-14T13:35:08.005Z,101324.34
2019-02-14T13:37:36.479Z,101314.84
2019-02-14T13:40:06.304Z,101313.13
2019-02-14T13:42:34.513Z,101323.02
2019-02-14T13:45:02.824Z,101308.50
2019-02-14T13:47:31.052Z,101314.62
2019-02-14T13:49:59.298Z,101313.45
2019-02-14T13:52:27.526Z,101308.66
2019-02-14T13:54:55.776Z,101305.77
2019-02-14T13:57:24.010Z,101307.21
2019-02-14T13:59:52.566Z,101297.98
2019-02-14T14:02:21.009Z,101298.66
2019-02-14T14:04:49.237Z,101289.92
2019-02-14T14:07:17.464Z,101286.52
2019-02-14T14:09:46.099Z,101287.05
2019-02-14T14:12:14.616Z,101285.31
2019-02-14T14:14:43.094Z,101285.31
2019-02-14T14:17:11.332Z,101277.81
2019-02-14T14:19:39.586Z,101261.70
2019-02-14T14:22:07.827Z,101274.96
2019-02-14T14:24:36.080Z,101273.67
2019-02-14T14:27:04.589Z,101268.72
2019-02-14T14:29:32.836Z,101269.72
2019-02-14T14:32:01.940Z,101265.19
2019-02-14T14:34:30.285Z,101272.62
2019-02-14T14:36:58.527Z,101266.20
2019-02-14T14:39:26.777Z,101262.62
2019-02-14T14:41:55.006Z,101267.73
2019-02-14T14:44:30.699Z,101266.97
2019-02-14T14:46:58.934Z,101263.55
2019-02-14T14:49:27.181Z,101262.38
2019-02-14T14:51:55.427Z,101263.71
2019-02-14T14:54:23.677Z,101267.80
2019-02-14T14:56:52.212Z,101264.19
2019-02-14T14:59:20.690Z,101261.94
2019-02-14T15:01:49.152Z,101263.33
2019-02-14T15:04:17.382Z,101268.73
2019-02-14T15:06:45.633Z,101268.83
2019-02-14T15:09:13.870Z,101271.14
2019-02-14T15:11:42.121Z,101276.28
2019-02-14T15:14:10.358Z,101278.00
2019-02-14T15:16:38.940Z,101271.47
2019-02-14T15:19:07.420Z,101268.88
2019-02-14T15:21:35.675Z,101268.69
2019-02-14T15:24:04.142Z,101267.87
2019-02-14T15:26:32.401Z,101272.14
2019-02-14T15:29:00.939Z,101264.91
2019-02-14T15:31:29.408Z,101274.03
2019-02-14T15:33:57.645Z,101271.55
2019-02-14T15:36:28.183Z,101272.24
2019-02-14T15:38:55.867Z,101275.62
2019-02-14T15:41:24.324Z,101274.42
2019-02-14T15:43:52.576Z,101269.89
2019-02-14T15:46:21.035Z,101262.16
2019-02-14T15:48:49.262Z,101251.34
2019-02-14T15:51:19.558Z,101247.25
2019-02-14T15:53:47.693Z,101243.96
2019-02-14T15:56:15.931Z,101243.93
2019-02-14T15:58:44.165Z,101246.55
2019-02-14T16:01:14.448Z,101244.83
2019-02-14T16:03:42.806Z,101246.25
2019-02-14T16:06:11.313Z,101254.98
2019-02-14T16:08:39.555Z,101254.55
2019-02-14T16:11:09.715Z,101252.02
2019-02-14T16:13:37.968Z,101255.20
2019-02-14T16:16:06.231Z,101250.19
2019-02-14T16:18:34.464Z,101250.02
2019-02-14T16:21:03.696Z,101260.16
2019-02-14T16:23:34.202Z,101260.40
2019-02-14T16:26:02.578Z,101262.67
2019-02-14T16:28:31.009Z,101258.66
2019-02-14T16:30:59.243Z,101257.84
2019-02-14T16:33:27.730Z,101258.23
2019-02-14T16:35:55.961Z,101260.78
2019-02-14T16:38:24.208Z,101259.48
2019-02-14T16:40:52.443Z,101262.81
2019-02-14T16:43:20.804Z,101269.28
2019-02-14T16:45:49.028Z,101269.75
2019-02-14T16:48:17.287Z,101267.87
2019-02-14T16:50:45.517Z,101271.00
2019-02-14T16:53:14.042Z,101268.30
2019-02-14T16:55:42.497Z,101277.69
2019-02-14T16:58:10.746Z,101280.30
2019-02-14T17:00:38.977Z,101279.69
2019-02-14T17:03:07.219Z,101287.31
2019-02-14T17:05:35.449Z,101287.45
2019-02-14T17:08:03.694Z,101285.46
2019-02-14T17:10:37.099Z,101290.26
2019-02-14T17:13:02.203Z,101292.70
2019-02-14T17:15:30.440Z,101289.00
2019-02-14T17:17:58.680Z,101291.86
2019-02-14T17:20:26.911Z,101296.34
2019-02-14T17:22:55.149Z,101296.64
2019-02-14T17:25:23.610Z,101295.00
2019-02-14T17:27:51.864Z,101293.47
2019-02-14T17:30:20.345Z,101288.63
2019-02-14T17:32:48.937Z,101290.15
2019-02-14T17:35:17.427Z,101300.28
2019-02-14T17:37:46.000Z,101299.78
2019-02-14T17:40:14.238Z,101304.63
2019-02-14T17:42:42.715Z,101305.38
2019-02-14T17:45:11.113Z,101313.20
2019-02-14T17:47:39.625Z,101311.91
2019-02-14T17:50:08.800Z,101312.79
2019-02-14T17:52:37.057Z,101314.09
2019-02-14T17:55:08.270Z,101316.88
2019-02-14T17:57:36.738Z,101318.52
2019-02-14T18:00:08.586Z,101317.38
2019-02-14T18:02:37.067Z,101312.23
2019-02-14T18:05:07.709Z,101309.91
2019-02-14T18:07:36.285Z,101315.90
2019-02-14T18:10:10.415Z,101318.80
2019-02-14T18:12:38.655Z,101315.98
2019-02-14T18:15:09.938Z,101307.77
2019-02-14T18:17:38.174Z,101320.41
2019-02-14T18:20:09.150Z,101313.81
2019-02-14T18:22:37.654Z,101316.75
2019-02-14T18:25:09.202Z,101313.40
2019-02-14T18:27:37.435Z,101314.64
2019-02-14T18:30:10.865Z,101311.05
2019-02-14T18:32:39.336Z,101311.05
2019-02-14T18:35:11.886Z,101312.05
2019-02-14T18:37:40.433Z,101312.05
2019-02-14T18:40:10.223Z,101300.37
2019-02-14T18:42:41.490Z,101308.55
2019-02-14T18:45:13.833Z,101306.47
2019-02-14T18:47:42.346Z,101297.87
2019-02-14T18:50:14.208Z,101292.23
2019-02-14T18:52:42.446Z,101297.16
2019-02-14T18:55:11.536Z,101297.16
2019-02-14T18:57:39.767Z,101300.42
2019-02-14T19:00:11.361Z,101303.58
2019-02-14T19:02:39.587Z,101295.72
2019-02-14T19:05:10.211Z,101298.22
2019-02-14T19:07:38.773Z,101295.23
2019-02-14T19:10:10.152Z,101295.23
2019-02-14T19:15:12.500Z,101294.17
2019-02-14T19:17:40.718Z,101297.25
2019-02-14T19:20:11.678Z,101300.03
2019-02-14T19:22:40.870Z,101281.31
2019-02-14T19:25:09.626Z,101291.41
2019-02-14T19:27:37.846Z,101291.41
2019-02-14T19:30:08.895Z,101280.05
2019-02-14T19:32:37.123Z,101283.93
2019-02-14T19:35:07.501Z,101293.06
2019-02-14T19:37:35.748Z,101283.70
2019-02-14T19:40:05.736Z,101283.70
2019-02-14T19:42:34.033Z,101284.83
2019-02-14T19:45:02.517Z,101282.75
2019-02-14T19:47:30.805Z,101280.72
2019-02-14T19:49:59.036Z,101276.00
2019-02-14T19:52:27.542Z,101275.94
2019-02-14T19:54:55.837Z,101275.94
2019-02-14T19:57:24.072Z,101276.58
2019-02-14T19:59:52.305Z,101275.09
2019-02-14T20:02:20.540Z,101275.55
2019-02-14T20:04:48.773Z,101273.50
2019-02-14T20:07:17.018Z,101273.50
2019-02-14T20:09:45.266Z,101257.38
2019-02-14T20:12:13.503Z,101279.97
2019-02-14T20:14:41.758Z,101279.97
2019-02-14T20:17:09.999Z,101227.45
2019-02-14T20:19:38.605Z,101227.45
2019-02-14T20:22:06.893Z,101271.70
2019-02-14T20:24:35.124Z,101270.66
2019-02-14T20:27:03.365Z,101270.66
2019-02-14T20:29:31.586Z,101275.23
2019-02-14T20:32:00.084Z,101286.39
2019-02-14T20:34:28.361Z,101286.39
2019-02-14T20:36:56.550Z,101281.52
2019-02-14T20:39:24.841Z,101277.03
2019-02-14T20:41:53.083Z,101271.00
2019-02-14T20:44:21.573Z,101271.00
2019-02-14T20:46:50.052Z,101273.17
2019-02-14T20:49:18.288Z,101273.85
2019-02-14T20:51:46.519Z,101281.65
2019-02-14T20:54:14.747Z,101284.16
2019-02-14T20:56:43.162Z,101285.61
2019-02-14T20:59:11.639Z,101282.02
2019-02-14T21:01:39.864Z,101282.02
2019-02-14T21:04:08.109Z,101285.38
2019-02-14T21:06:36.337Z,101285.38
2019-02-14T21:09:06.637Z,101290.70
2019-02-14T21:11:35.181Z,101297.54
2019-02-14T21:14:03.420Z,101297.54
2019-02-14T21:16:31.942Z,101296.34
2019-02-14T21:19:00.189Z,101297.68
2019-02-14T21:21:28.415Z,101298.37
2019-02-14T21:23:57.049Z,101299.13
2019-02-14T21:26:25.256Z,101294.26
2019-02-14T21:28:53.738Z,101294.26
2019-02-14T21:31:21.982Z,101304.44
2019-02-14T21:33:50.212Z,101299.19
2019-02-14T21:36:18.441Z,101292.75
2019-02-14T21:38:46.693Z,101290.20
2019-02-14T21:41:14.911Z,101292.16
2019-02-14T21:43:43.165Z,101299.86
2019-02-14T21:46:11.498Z,101283.75
2019-02-14T21:48:39.987Z,101300.69
2019-02-14T21:51:08.186Z,101294.10
2019-02-14T21:53:36.439Z,101283.38
2019-02-14T21:56:04.659Z,101283.38
2019-02-14T21:58:32.890Z,101298.36
2019-02-14T22:01:01.217Z,101302.77
2019-02-14T22:03:29.711Z,101299.11
2019-02-14T22:05:57.939Z,101309.28
2019-02-14T22:08:26.204Z,101307.95
2019-02-14T22:10:54.432Z,101302.33
2019-02-14T22:13:24.772Z,101304.51
2019-02-14T22:15:52.974Z,101301.34
2019-02-14T22:18:21.245Z,101297.75
2019-02-14T22:20:49.474Z,101293.72
2019-02-14T22:23:17.793Z,101294.59
2019-02-14T22:25:46.030Z,101291.67
2019-02-14T22:28:14.540Z,101295.02
2019-02-14T22:30:43.003Z,101288.38
2019-02-14T22:33:11.237Z,101284.53
2019-02-14T22:35:39.703Z,101278.33
2019-02-14T22:38:07.936Z,101285.16
2019-02-14T22:40:36.173Z,101278.80
2019-02-14T22:43:04.627Z,101283.14
2019-02-14T22:45:32.865Z,101283.14
2019-02-14T22:48:01.095Z,101290.23
2019-02-14T22:50:29.338Z,101289.56
2019-02-14T22:52:57.569Z,101282.42
2019-02-14T22:55:25.814Z,101289.09
2019-02-14T22:57:54.043Z,101282.52
2019-02-14T23:00:33.094Z,101285.21
2019-02-14T23:03:01.324Z,101280.71
2019-02-14T23:05:29.580Z,101284.16
2019-02-14T23:07:57.837Z,101291.47
2019-02-14T23:10:26.079Z,101288.92
2019-02-14T23:12:55.975Z,101285.70
2019-02-14T23:15:24.281Z,101286.06
2019-02-14T23:17:52.741Z,101290.63
2019-02-14T23:20:21.274Z,101285.75
2019-02-14T23:22:49.503Z,101286.95
2019-02-14T23:25:18.151Z,101292.25
2019-02-14T23:27:46.387Z,101290.77
2019-02-14T23:30:15.013Z,101291.20
2019-02-14T23:32:43.255Z,101286.91
2019-02-14T23:35:11.482Z,101290.19
2019-02-14T23:37:39.722Z,101297.75
2019-02-14T23:40:07.950Z,101290.70
2019-02-14T23:42:36.182Z,101290.70
2019-02-14T23:45:06.814Z,101286.52
2019-02-14T23:47:35.285Z,101291.81
2019-02-14T23:50:04.549Z,101291.61
2019-02-14T23:52:32.782Z,101286.95
2019-02-14T23:55:01.011Z,101289.12
2019-02-14T23:57:29.469Z,101287.16
2019-02-14T23:59:57.923Z,101285.20
